Time;durP1;ratioP1;P1;durP2;ratioP2;P2;SDS_P1;SDS_P2;PMS_P1;PMS_P2;Temp;Humidity;BMP_temperature;BMP_pressure;BME280_temperature;BME280_humidity;BME280_pressure;Samples;Min_cycle;Max_cycle;Signal;HPM_P1;HPM_P2
2023/05/19 00:00:18;;;;;;;4.32;1.42;;;;;;;10.74;72.24;102488.16;6225747;28;20053;-70
2023/05/19 00:03:20;;;;;;;2.30;1.02;;;;;;;10.78;72.28;102493.31;6218151;28;20049;-69
2023/05/19 00:06:23;;;;;;;5.90;1.30;;;;;;;10.71;72.78;102488.25;6225950;28;20046;-69
2023/05/19 00:09:25;;;;;;;6.28;1.55;;;;;;;10.66;73.12;102489.22;6225244;28;20283;-69
2023/05/19 00:12:27;;;;;;;7.18;1.40;;;;;;;10.62;73.33;102489.34;6225502;28;20050;-69
2023/05/19 00:15:30;;;;;;;3.92;1.10;;;;;;;10.59;73.51;102499.94;6225651;28;20058;-70
2023/05/19 00:18:32;;;;;;;3.55;1.60;;;;;;;10.58;74.06;102491.22;6225150;28;20077;-69
2023/05/19 00:21:33;;;;;;;1.60;1.00;;;;;;;10.55;74.03;102485.16;6225298;28;20053;-70
2023/05/19 00:24:34;;;;;;;4.43;1.10;;;;;;;10.55;74.49;102491.28;6225486;28;20054;-70
2023/05/19 00:27:36;;;;;;;5.80;1.40;;;;;;;10.51;74.57;102476.47;6225642;28;20045;-70
2023/05/19 00:30:38;;;;;;;3.03;0.93;;;;;;;10.51;75.28;102483.50;6225351;28;20041;-70
2023/05/19 00:33:40;;;;;;;2.28;0.85;;;;;;;10.49;75.39;102474.78;6225129;28;20351;-69
2023/05/19 00:36:41;;;;;;;3.28;1.25;;;;;;;10.41;74.69;102477.63;6225254;28;20058;-69
2023/05/19 00:39:42;;;;;;;3.80;1.45;;;;;;;10.28;73.98;102478.81;6225300;28;20046;-69
2023/05/19 00:42:44;;;;;;;4.18;1.58;;;;;;;10.26;75.41;102473.56;6225436;28;20053;-69
2023/05/19 00:45:47;;;;;;;6.43;1.27;;;;;;;10.32;76.02;102473.44;6225481;28;20140;-69
2023/05/19 00:48:48;;;;;;;5.32;1.23;;;;;;;10.38;74.58;102469.81;6225118;28;20046;-69
2023/05/19 00:51:49;;;;;;;4.43;1.65;;;;;;;10.19;75.95;102471.13;6225007;28;20054;-70
2023/05/19 00:54:51;;;;;;;4.30;1.23;;;;;;;10.18;76.89;102472.91;6225358;28;20054;-69
2023/05/19 00:57:53;;;;;;;3.67;1.20;;;;;;;10.23;75.93;102472.78;6225150;28;20073;-69
2023/05/19 01:01:01;;;;;;;5.95;1.35;;;;;;;10.13;76.01;102470.38;6225103;28;20275;-70
2023/05/19 01:04:04;;;;;;;6.30;1.40;;;;;;;10.04;76.01;102467.97;6225127;28;20136;-70
2023/05/19 01:07:05;;;;;;;2.65;1.27;;;;;;;9.95;77.36;102469.91;6225139;28;20346;-70
2023/05/19 01:10:07;;;;;;;3.80;1.27;;;;;;;9.96;78.10;102469.91;6224783;28;20740;-69
2023/05/19 01:13:08;;;;;;;2.90;1.38;;;;;;;9.99;78.68;102467.22;6225311;28;20045;-69
2023/05/19 01:16:18;;;;;;;8.48;1.70;;;;;;;9.98;78.81;102475.97;6224854;28;20354;-69
2023/05/19 01:19:34;;;;;;;10.48;1.60;;;;;;;9.91;80.14;102471.78;6217161;28;20053;-69
2023/05/19 01:23:06;;;;;;;4.18;1.67;;;;;;;9.85;79.74;102479.75;6221240;28;20455;-70
2023/05/19 01:26:34;;;;;;;9.85;1.52;;;;;;;9.83;79.09;102478.94;6228325;28;20358;-70
2023/05/19 01:29:42;;;;;;;2.72;1.25;;;;;;;9.83;79.82;102476.31;6223831;28;20057;-69
2023/05/19 01:32:48;;;;;;;8.20;2.13;;;;;;;9.75;80.31;102483.50;6229077;28;20093;-69
2023/05/19 01:35:50;;;;;;;5.57;1.40;;;;;;;9.75;79.86;102483.50;6229136;28;20058;-69
2023/05/19 01:38:57;;;;;;;3.40;1.42;;;;;;;9.71;79.52;102476.59;6228574;28;20047;-69
2023/05/19 01:41:59;;;;;;;5.07;1.77;;;;;;;9.69;80.79;102481.03;6229027;28;20050;-69
2023/05/19 01:45:01;;;;;;;4.00;2.03;;;;;;;9.61;80.12;102483.81;6228978;28;20046;-70
2023/05/19 01:48:04;;;;;;;2.10;1.40;;;;;;;9.59;80.95;102486.47;6223445;28;20045;-69
2023/05/19 01:51:06;;;;;;;5.22;1.65;;;;;;;9.59;82.07;102494.34;6228391;28;20045;-70
2023/05/19 01:54:07;;;;;;;5.65;1.40;;;;;;;9.57;81.77;102484.75;6228608;28;20512;-69
2023/05/19 01:57:23;;;;;;;4.15;1.50;;;;;;;9.50;81.65;102489.28;6228306;28;20045;-69
2023/05/19 02:00:36;;;;;;;2.80;1.88;;;;;;;9.50;81.29;102491.06;6228373;28;20041;-69
2023/05/19 02:03:49;;;;;;;4.72;1.65;;;;;;;9.49;82.63;102492.78;6228458;28;20045;-69
2023/05/19 02:06:57;;;;;;;4.45;1.83;;;;;;;9.46;82.11;102486.75;6225877;28;20053;-69
2023/05/19 02:10:04;;;;;;;5.65;1.30;;;;;;;9.45;82.89;102480.66;6218048;28;20046;-69
2023/05/19 02:13:09;;;;;;;5.28;1.60;;;;;;;9.43;82.21;102478.94;6228242;28;20147;-69
2023/05/19 02:16:13;;;;;;;4.05;1.67;;;;;;;9.39;82.86;102472.88;6228184;28;20362;-69
2023/05/19 02:19:27;;;;;;;3.25;1.70;;;;;;;9.44;83.79;102476.28;6224102;28;20049;-69
2023/05/19 02:22:28;;;;;;;2.22;1.63;;;;;;;9.36;82.94;102465.97;6226299;28;20058;-69
2023/05/19 02:25:30;;;;;;;4.03;1.42;;;;;;;9.38;83.24;102468.53;6228217;28;20049;-69
2023/05/19 02:28:31;;;;;;;1.50;1.15;;;;;;;9.36;83.80;102468.59;6227520;28;20453;-69
2023/05/19 02:31:33;;;;;;;2.22;1.38;;;;;;;9.31;83.95;102462.56;6227642;28;20061;-69
2023/05/19 02:34:35;;;;;;;5.07;1.58;;;;;;;9.34;84.30;102459.00;6227031;28;20053;-69
2023/05/19 02:37:37;;;;;;;2.55;1.45;;;;;;;9.27;83.52;102466.16;6227402;28;20057;-69
2023/05/19 02:40:38;;;;;;;1.77;1.40;;;;;;;9.30;84.60;102471.31;6227148;28;20374;-69
2023/05/19 02:43:40;;;;;;;4.07;1.80;;;;;;;9.24;83.78;102466.19;6227365;28;20042;-69
2023/05/19 02:46:41;;;;;;;3.53;1.50;;;;;;;9.21;84.30;102457.53;6227641;28;20081;-70
2023/05/19 02:49:44;;;;;;;4.25;1.98;;;;;;;9.28;85.59;102467.88;6226824;28;20060;-70
2023/05/19 02:52:45;;;;;;;4.80;1.25;;;;;;;9.24;85.48;102457.47;6227429;28;20089;-69
2023/05/19 02:55:46;;;;;;;4.60;1.20;;;;;;;9.27;85.71;102454.78;6227097;28;20050;-69
2023/05/19 02:58:48;;;;;;;3.10;1.55;;;;;;;9.20;86.09;102451.41;6226337;28;20053;-69
2023/05/19 03:01:50;;;;;;;13.32;1.92;;;;;;;9.27;85.97;102452.16;6227177;28;20446;-70
2023/05/19 03:04:53;;;;;;;3.00;1.60;;;;;;;9.18;86.17;102454.97;6227316;28;20092;-69
2023/05/19 03:07:55;;;;;;;9.00;2.00;;;;;;;9.15;86.64;102455.91;6225544;28;20168;-69
2023/05/19 03:10:56;;;;;;;4.03;1.67;;;;;;;9.14;85.90;102446.31;6208648;28;20127;-69
2023/05/19 03:13:58;;;;;;;5.53;1.70;;;;;;;9.13;85.51;102441.97;6211531;28;20053;-69
2023/05/19 03:17:00;;;;;;;3.85;2.08;;;;;;;9.06;86.37;102449.06;6215244;28;20430;-69
2023/05/19 03:20:04;;;;;;;5.22;1.80;;;;;;;9.02;86.48;102446.53;6218135;28;20046;-69
2023/05/19 03:23:05;;;;;;;4.05;1.50;;;;;;;9.00;88.04;102443.09;6214447;28;20050;-69
2023/05/19 03:26:06;;;;;;;5.25;1.77;;;;;;;9.02;86.82;102442.16;6220680;28;20271;-69
2023/05/19 03:29:08;;;;;;;7.93;2.35;;;;;;;9.04;87.70;102442.16;6210839;28;20572;-69
2023/05/19 03:32:09;;;;;;;9.70;1.80;;;;;;;9.02;87.70;102449.16;6208097;28;20042;-69
2023/05/19 03:35:12;;;;;;;4.78;1.70;;;;;;;8.98;87.28;102452.72;6210953;28;20128;-69
2023/05/19 03:38:13;;;;;;;6.65;2.00;;;;;;;8.98;87.43;102456.22;6212361;28;20050;-69
2023/05/19 03:41:15;;;;;;;2.20;1.60;;;;;;;8.95;87.32;102453.66;6212593;28;20042;-69
2023/05/19 03:44:16;;;;;;;4.72;1.50;;;;;;;8.94;87.32;102457.16;6214211;28;20081;-69
2023/05/19 03:47:17;;;;;;;7.20;1.88;;;;;;;8.91;88.10;102459.88;6218788;28;20060;-69
2023/05/19 03:50:21;;;;;;;8.18;1.95;;;;;;;8.95;88.12;102453.66;6219481;28;20046;-69
2023/05/19 03:53:22;;;;;;;4.90;2.08;;;;;;;8.91;88.77;102453.75;6218085;28;20056;-69
2023/05/19 03:56:26;;;;;;;5.68;1.92;;;;;;;8.89;88.96;102453.78;6217516;28;20064;-69
2023/05/19 03:59:27;;;;;;;9.45;2.30;;;;;;;8.92;89.46;102453.72;6224219;28;20049;-69
2023/05/19 04:02:29;;;;;;;3.13;1.85;;;;;;;8.94;88.65;102456.31;6226166;28;20046;-69
2023/05/19 04:05:31;;;;;;;4.45;1.60;;;;;;;8.99;88.14;102471.03;6225731;28;20328;-69
2023/05/19 04:08:33;;;;;;;7.00;1.88;;;;;;;8.94;87.72;102469.41;6223508;28;20057;-69
2023/05/19 04:11:35;;;;;;;7.53;2.22;;;;;;;8.82;88.50;102470.53;6226019;28;20057;-69
2023/05/19 04:14:36;;;;;;;3.58;1.88;;;;;;;8.85;88.85;102467.81;6225739;28;20054;-69
2023/05/19 04:17:38;;;;;;;5.60;2.30;;;;;;;8.84;89.72;102471.34;6225217;28;20057;-69
2023/05/19 04:20:41;;;;;;;5.78;1.85;;;;;;;8.78;88.12;102472.31;6225479;28;20057;-69
2023/05/19 04:23:42;;;;;;;2.78;2.20;;;;;;;8.75;89.17;102476.75;6225680;28;20056;-69
2023/05/19 04:26:45;;;;;;;5.55;2.50;;;;;;;8.69;89.22;102471.63;6225759;28;20054;-69
2023/05/19 04:29:48;;;;;;;4.53;1.83;;;;;;;8.73;90.57;102474.16;6225241;28;20199;-69
2023/05/19 04:32:50;;;;;;;3.42;1.80;;;;;;;8.77;90.35;102475.84;6225851;28;20087;-69
2023/05/19 04:35:52;;;;;;;6.05;2.50;;;;;;;8.78;90.47;102476.72;6225721;28;20542;-69
2023/05/19 04:39:01;;;;;;;4.88;2.20;;;;;;;8.78;91.66;102472.31;6225552;28;20050;-69
2023/05/19 04:42:02;;;;;;;8.13;3.03;;;;;;;8.72;91.23;102477.69;6225447;28;20354;-70
2023/05/19 04:45:07;;;;;;;4.90;2.03;;;;;;;8.78;91.33;102484.56;6225740;28;20136;-69
2023/05/19 04:48:09;;;;;;;8.27;2.92;;;;;;;8.83;90.58;102478.34;6224966;28;20049;-69
2023/05/19 04:51:12;;;;;;;3.42;2.40;;;;;;;8.89;90.44;102470.34;6225474;28;20042;-69
2023/05/19 04:54:14;;;;;;;5.63;2.53;;;;;;;8.89;89.81;102478.22;6225589;28;20049;-69
2023/05/19 04:57:16;;;;;;;10.52;3.00;;;;;;;8.92;89.60;102477.31;6228399;28;20149;-69
2023/05/19 05:00:18;;;;;;;9.60;2.47;;;;;;;8.89;88.62;102470.34;6229590;28;20461;-69
2023/05/19 05:03:21;;;;;;;3.33;2.22;;;;;;;8.92;89.01;102474.69;6229931;28;20462;-69
2023/05/19 05:06:24;;;;;;;7.13;2.20;;;;;;;8.88;88.65;102468.63;6230054;28;20056;-69
2023/05/19 05:09:25;;;;;;;3.40;2.10;;;;;;;8.86;90.62;102474.81;6229508;28;20049;-69
2023/05/19 05:12:27;;;;;;;4.88;2.33;;;;;;;8.85;90.16;102462.59;6229583;28;20362;-69
2023/05/19 05:15:29;;;;;;;3.67;1.98;;;;;;;8.90;91.02;102473.84;6229547;28;20058;-69
2023/05/19 05:18:31;;;;;;;6.00;2.60;;;;;;;8.95;90.16;102471.13;6229004;28;20140;-69
2023/05/19 05:21:34;;;;;;;4.97;2.25;;;;;;;8.99;91.09;102478.91;6229539;28;20450;-69
2023/05/19 05:24:36;;;;;;;4.93;2.40;;;;;;;9.02;90.26;102471.00;6229318;28;20442;-69
2023/05/19 05:27:38;;;;;;;3.25;2.10;;;;;;;9.04;90.91;102482.34;6229401;28;20052;-69
2023/05/19 05:30:40;;;;;;;5.97;2.20;;;;;;;9.09;91.36;102485.75;6229422;28;20045;-70
2023/05/19 05:33:42;;;;;;;3.47;1.98;;;;;;;9.11;91.72;102483.06;6224051;28;20045;-69
2023/05/19 05:36:45;;;;;;;4.43;2.15;;;;;;;9.04;91.72;102478.84;6228915;28;20050;-69
2023/05/19 05:39:46;;;;;;;6.97;2.10;;;;;;;9.17;92.19;102482.09;6228823;28;20057;-69
2023/05/19 05:42:47;;;;;;;7.13;2.50;;;;;;;9.13;92.27;102481.31;6227387;28;20050;-69
2023/05/19 05:45:49;;;;;;;6.25;2.65;;;;;;;9.15;92.74;102477.75;6228819;28;20432;-70
2023/05/19 05:48:51;;;;;;;9.07;2.28;;;;;;;9.18;92.92;102478.59;6228601;28;20192;-69
2023/05/19 05:51:54;;;;;;;8.10;2.47;;;;;;;9.23;94.04;102476.72;6228713;28;20323;-69
2023/05/19 05:54:56;;;;;;;8.48;2.83;;;;;;;9.30;94.35;102475.69;6228773;28;20054;-70
2023/05/19 05:57:58;;;;;;;4.88;1.98;;;;;;;9.38;93.93;102473.78;6226668;28;20057;-69
2023/05/19 06:01:01;;;;;;;4.38;2.22;;;;;;;9.45;93.61;102470.16;6228025;28;20068;-69
2023/05/19 06:04:02;;;;;;;11.15;2.35;;;;;;;9.45;93.07;102470.16;6228621;28;20045;-70
2023/05/19 06:07:05;;;;;;;8.50;2.58;;;;;;;9.47;93.25;102472.75;6228121;28;20056;-70
2023/05/19 06:10:08;;;;;;;10.35;2.35;;;;;;;9.58;95.41;102470.75;6228056;28;20050;-70
2023/05/19 06:13:10;;;;;;;3.75;1.77;;;;;;;9.60;94.53;102471.59;6226763;28;20086;-69
2023/05/19 06:16:11;;;;;;;2.78;1.75;;;;;;;9.65;94.05;102472.34;6228031;28;20046;-69
2023/05/19 06:19:12;;;;;;;7.30;2.33;;;;;;;9.71;94.98;102472.19;6225574;28;20057;-69
2023/05/19 06:22:15;;;;;;;5.85;2.30;;;;;;;9.79;95.88;102464.16;6225561;28;20050;-70
2023/05/19 06:25:17;;;;;;;8.18;2.20;;;;;;;9.87;96.32;102470.13;6227592;28;20076;-69
2023/05/19 06:28:18;;;;;;;7.28;2.25;;;;;;;9.98;97.04;102464.59;6219626;28;20057;-70
2023/05/19 06:31:20;;;;;;;7.65;2.20;;;;;;;10.05;96.11;102463.56;6228009;28;20046;-70
2023/05/19 06:34:21;;;;;;;8.38;3.45;;;;;;;10.10;96.35;102465.19;6227657;28;20089;-69
2023/05/19 06:37:24;;;;;;;3.70;1.60;;;;;;;10.19;97.11;102466.72;6227540;28;20050;-70
2023/05/19 06:40:25;;;;;;;1.95;1.50;;;;;;;10.27;98.22;102467.44;6227469;28;20050;-70
2023/05/19 06:43:27;;;;;;;3.58;1.80;;;;;;;10.35;97.83;102464.59;6227263;28;20060;-70
2023/05/19 06:46:28;;;;;;;4.05;1.50;;;;;;;10.41;98.25;102467.09;6225148;28;20074;-69
2023/05/19 06:49:30;;;;;;;3.13;1.60;;;;;;;10.49;98.37;102467.78;6226897;28;20444;-69
2023/05/19 06:52:33;;;;;;;10.25;2.47;;;;;;;10.61;97.45;102466.59;6227461;28;20053;-69
2023/05/19 06:55:34;;;;;;;4.07;1.77;;;;;;;10.65;93.60;102465.59;6227082;28;20429;-69
2023/05/19 06:58:35;;;;;;;7.20;1.52;;;;;;;10.72;93.33;102467.19;6227010;28;20050;-69
2023/05/19 07:01:37;;;;;;;6.53;1.40;;;;;;;10.83;94.05;102469.53;6227056;28;20050;-69
2023/05/19 07:04:39;;;;;;;3.00;1.50;;;;;;;10.89;93.18;102469.34;6227298;28;20049;-69
2023/05/19 07:07:42;;;;;;;5.00;1.60;;;;;;;10.94;92.41;102464.81;6226997;28;20054;-69
2023/05/19 07:10:44;;;;;;;7.35;1.38;;;;;;;11.01;93.73;102461.13;6226917;28;20452;-69
2023/05/19 07:13:45;;;;;;;2.28;1.15;;;;;;;11.09;93.29;102460.94;6226346;28;20060;-69
2023/05/19 07:16:46;;;;;;;2.72;1.33;;;;;;;11.09;92.92;102461.78;6226588;28;20060;-70
2023/05/19 07:19:48;;;;;;;5.00;1.60;;;;;;;11.16;93.56;102460.69;6225925;28;20050;-69
2023/05/19 07:22:50;;;;;;;6.47;1.83;;;;;;;11.23;93.84;102455.28;6225340;28;20053;-70
2023/05/19 07:25:54;;;;;;;3.60;1.52;;;;;;;11.29;94.60;102463.84;6222762;28;20050;-70
2023/05/19 07:28:56;;;;;;;3.92;1.48;;;;;;;11.41;92.10;102468.75;6222349;28;20185;-69
2023/05/19 07:31:58;;;;;;;3.38;1.27;;;;;;;11.46;91.36;102462.50;6224201;28;20469;-69
2023/05/19 07:34:59;;;;;;;3.92;1.23;;;;;;;11.51;89.61;102460.59;6225695;28;20050;-70
2023/05/19 07:38:03;;;;;;;2.97;1.20;;;;;;;11.52;89.03;102455.28;6223877;28;20053;-70
2023/05/19 07:41:04;;;;;;;7.15;1.67;;;;;;;11.57;91.37;102452.50;6225246;28;20423;-70
2023/05/19 07:44:06;;;;;;;5.93;1.40;;;;;;;11.75;88.69;102451.94;6224930;28;20431;-70
2023/05/19 07:47:07;;;;;;;6.38;1.30;;;;;;;11.92;88.96;102454.09;6226059;28;20080;-70
2023/05/19 07:50:09;;;;;;;9.15;1.17;;;;;;;11.91;88.19;102449.72;6225633;28;20053;-70
2023/05/19 07:53:11;;;;;;;3.17;1.13;;;;;;;11.97;87.56;102454.78;6226251;28;20052;-70
2023/05/19 07:56:13;;;;;;;5.35;1.90;;;;;;;12.00;88.82;102451.22;6225890;28;20046;-70
2023/05/19 07:59:14;;;;;;;4.82;1.45;;;;;;;11.99;87.44;102442.47;6225845;28;20133;-70
2023/05/19 08:02:16;;;;;;;4.88;1.38;;;;;;;12.12;87.79;102451.66;6225879;28;20050;-70
2023/05/19 08:05:17;;;;;;;3.45;1.70;;;;;;;12.21;86.49;102450.50;6226057;28;20207;-70
2023/05/19 08:08:20;;;;;;;4.55;1.25;;;;;;;12.31;85.43;102451.94;6225429;28;20434;-70
2023/05/19 08:11:22;;;;;;;6.05;1.73;;;;;;;12.46;84.75;102452.34;6225383;28;20053;-70
2023/05/19 08:14:23;;;;;;;6.18;1.20;;;;;;;12.48;83.73;102442.59;6224739;28;20072;-70
2023/05/19 08:17:24;;;;;;;4.38;1.55;;;;;;;12.52;83.41;102438.94;6225696;28;20457;-70
2023/05/19 08:20:26;;;;;;;5.65;1.52;;;;;;;12.62;79.69;102432.41;6225110;28;20061;-70
2023/05/19 08:23:29;;;;;;;4.00;1.08;;;;;;;12.82;79.66;102434.38;6224271;28;20442;-70
2023/05/19 08:26:31;;;;;;;3.83;1.30;;;;;;;12.80;81.82;102444.09;6225588;28;20054;-70
2023/05/19 08:29:32;;;;;;;6.35;1.08;;;;;;;12.85;79.28;102431.59;6225516;28;20057;-70
2023/05/19 08:32:33;;;;;;;2.78;1.10;;;;;;;12.88;80.50;102431.50;6230530;28;20054;-70
2023/05/19 08:35:35;;;;;;;4.72;1.05;;;;;;;13.02;80.67;102423.09;6230611;28;20050;-70
2023/05/19 08:38:37;;;;;;;8.23;1.23;;;;;;;13.16;78.31;102424.28;6230028;28;20054;-70
2023/05/19 08:41:39;;;;;;;1.30;0.80;;;;;;;13.27;78.83;102416.03;6229535;28;20038;-70
2023/05/19 08:44:42;;;;;;;3.15;1.10;;;;;;;13.41;77.54;102415.50;6230434;28;20050;-70
2023/05/19 08:47:46;;;;;;;5.93;2.08;;;;;;;13.52;75.76;102401.84;6230078;28;20046;-70
2023/05/19 08:50:54;;;;;;;1.52;1.02;;;;;;;13.48;75.45;102400.25;6228638;28;20053;-70
2023/05/19 08:54:04;;;;;;;4.43;0.90;;;;;;;13.55;76.17;102399.97;6225472;28;20053;-70
2023/05/19 08:57:06;;;;;;;3.65;0.90;;;;;;;13.64;74.98;102393.47;6228646;28;20050;-70
2023/05/19 09:00:10;;;;;;;2.03;0.60;;;;;;;13.75;73.04;102396.53;6229617;28;20054;-70
2023/05/19 09:03:14;;;;;;;3.15;0.77;;;;;;;13.84;71.89;102395.28;6224338;28;20053;-70
2023/05/19 09:06:15;;;;;;;4.55;0.73;;;;;;;13.92;71.62;102398.50;6227470;28;20136;-70
2023/05/19 09:09:18;;;;;;;6.25;1.17;;;;;;;13.99;70.85;102388.50;6220436;28;20050;-69
2023/05/19 09:12:20;;;;;;;2.13;0.80;;;;;;;14.16;70.68;102388.66;6223085;28;20053;-70
2023/05/19 09:15:26;;;;;;;2.28;0.50;;;;;;;14.19;66.40;102376.19;6227783;28;20057;-70
2023/05/19 09:18:27;;;;;;;0.43;0.43;;;;;;;14.28;67.88;102377.59;6227291;28;20582;-70
2023/05/19 09:21:30;;;;;;;1.95;0.50;;;;;;;14.32;66.03;102373.03;6225159;28;20056;-70
2023/05/19 09:24:33;;;;;;;1.77;0.73;;;;;;;14.43;66.53;102376.06;6229411;28;20137;-70
2023/05/19 09:27:35;;;;;;;3.33;0.60;;;;;;;14.66;61.71;102368.00;6229238;28;20049;-70
2023/05/19 09:30:36;;;;;;;1.73;0.60;;;;;;;14.83;60.15;102369.91;6229203;28;20056;-69
2023/05/19 09:33:39;;;;;;;1.85;0.60;;;;;;;14.91;59.81;102361.63;6224141;28;20048;-69
2023/05/19 09:36:41;;;;;;;1.40;0.57;;;;;;;15.00;60.61;102363.00;6222128;28;20390;-70
2023/05/19 09:39:47;;;;;;;1.52;0.82;;;;;;;15.04;61.99;102356.63;6223823;28;20060;-69
2023/05/19 09:42:49;;;;;;;2.25;0.98;;;;;;;15.07;61.03;102359.09;6225310;28;20469;-69
2023/05/19 09:45:55;;;;;;;1.20;0.65;;;;;;;15.22;60.70;102355.75;6223696;28;20056;-70
2023/05/19 09:48:57;;;;;;;1.48;0.90;;;;;;;15.34;59.13;102352.50;6223582;28;20045;-70
2023/05/19 09:52:02;;;;;;;4.45;2.47;;;;;;;15.47;57.57;102344.84;6217732;28;20451;-70
2023/05/19 09:55:05;;;;;;;3.15;0.88;;;;;;;15.75;57.46;102346.16;6213552;28;20470;-69
2023/05/19 09:58:07;;;;;;;2.75;0.57;;;;;;;15.77;57.96;102349.63;6227315;28;20057;-70
2023/05/19 10:01:09;;;;;;;1.92;0.65;;;;;;;15.69;57.22;102334.94;6219584;28;20058;-69
2023/05/19 10:04:11;;;;;;;4.72;0.70;;;;;;;15.86;51.00;102350.03;6226568;28;20430;-69
2023/05/19 10:07:15;;;;;;;1.17;0.50;;;;;;;15.71;54.13;102342.81;6226224;28;20069;-69
2023/05/19 10:10:18;;;;;;;3.35;1.80;;;;;;;15.85;52.24;102342.13;6228137;28;20045;-70
2023/05/19 10:13:21;;;;;;;1.35;0.82;;;;;;;16.00;55.54;102344.03;6222101;28;20073;-70
2023/05/19 10:16:26;;;;;;;2.70;0.70;;;;;;;16.13;55.05;102337.16;6227184;28;20054;-70
2023/05/19 10:19:28;;;;;;;0.88;0.52;;;;;;;16.27;55.44;102335.59;6227929;28;20450;-70
2023/05/19 10:22:30;;;;;;;7.22;0.77;;;;;;;16.28;51.46;102327.53;6226300;28;20054;-70
2023/05/19 10:25:34;;;;;;;5.70;0.90;;;;;;;16.47;53.94;102325.63;6227981;28;20050;-70
2023/05/19 10:28:39;;;;;;;1.58;0.70;;;;;;;16.64;56.25;102321.25;6227631;28;20046;-69
2023/05/19 10:31:41;;;;;;;3.90;1.05;;;;;;;16.56;51.13;102318.97;6227891;28;20038;-70
2023/05/19 10:35:06;;;;;;;1.75;0.73;;;;;;;16.35;52.97;102330.72;6227865;28;20057;-70
2023/05/19 10:38:16;;;;;;;3.10;0.75;;;;;;;16.41;51.45;102325.13;6227314;28;20050;-70
2023/05/19 10:41:26;;;;;;;1.45;0.77;;;;;;;16.33;49.76;102314.03;6219746;28;20136;-70
2023/05/19 10:44:40;;;;;;;1.00;0.90;;;;;;;16.58;52.78;102309.16;6222941;28;20054;-71
2023/05/19 10:47:42;;;;;;;2.50;0.65;;;;;;;16.48;47.56;102321.19;6227540;28;20049;-70
2023/05/19 10:50:44;;;;;;;3.97;0.70;;;;;;;16.35;52.93;102330.72;6227219;28;20042;-70
2023/05/19 10:53:46;;;;;;;2.28;0.80;;;;;;;16.29;53.09;102325.75;6226525;28;20137;-70
2023/05/19 10:56:48;;;;;;;2.30;0.98;;;;;;;16.43;55.22;102317.91;6227169;28;20358;-70
2023/05/19 10:59:50;;;;;;;1.40;0.85;;;;;;;16.71;54.19;102315.53;6226878;28;20061;-70
2023/05/19 11:02:55;;;;;;;2.83;1.30;;;;;;;16.77;54.79;102308.19;6227006;28;20504;-70
2023/05/19 11:06:17;;;;;;;1.42;0.90;;;;;;;16.74;52.43;102311.88;6226674;28;20046;-70
2023/05/19 11:09:18;;;;;;;5.18;0.70;;;;;;;16.96;50.95;102312.41;6218720;28;20054;-70
2023/05/19 11:12:22;;;;;;;2.55;0.75;;;;;;;16.90;50.75;102301.28;6227091;28;20057;-70
2023/05/19 11:15:35;;;;;;;1.88;1.00;;;;;;;16.89;53.12;102295.09;6309595;28;20373;-71
2023/05/19 11:18:37;;;;;;;2.15;0.52;;;;;;;17.42;51.44;102295.69;6291179;28;20157;-70
2023/05/19 11:21:47;;;;;;;2.50;0.80;;;;;;;17.56;49.26;102295.72;6284938;28;20131;-69
2023/05/19 11:24:51;;;;;;;2.55;0.75;;;;;;;17.60;50.45;102299.06;6284203;28;20049;-71
2023/05/19 11:27:54;;;;;;;0.70;0.70;;;;;;;17.49;47.55;102292.59;6281158;28;20048;-71
2023/05/19 11:30:58;;;;;;;1.25;0.63;;;;;;;17.27;46.60;102285.94;6274301;28;20357;-71
2023/05/19 11:34:00;;;;;;;1.85;0.40;;;;;;;17.58;48.54;102282.38;6280308;28;20099;-69
2023/05/19 11:37:01;;;;;;;0.65;0.60;;;;;;;17.97;45.72;102287.16;6288737;28;20049;-69
2023/05/19 11:40:04;;;;;;;2.67;0.93;;;;;;;18.35;45.15;102276.84;6281496;28;20484;-69
2023/05/19 11:43:06;;;;;;;2.15;1.08;;;;;;;18.53;46.87;102272.19;6288251;28;20548;-69
2023/05/19 11:46:09;;;;;;;2.33;0.63;;;;;;;18.45;46.03;102271.81;6289843;28;20064;-69
2023/05/19 11:49:10;;;;;;;1.50;0.52;;;;;;;18.22;48.95;102273.22;6284361;28;20061;-69
2023/05/19 11:52:12;;;;;;;3.42;1.25;;;;;;;18.46;44.70;102277.03;6287233;28;20430;-69
2023/05/19 11:55:15;;;;;;;1.40;0.50;;;;;;;18.45;44.74;102271.81;6283091;28;20055;-69
2023/05/19 11:58:17;;;;;;;1.90;0.80;;;;;;;18.77;44.38;102271.63;6281252;28;20048;-68
2023/05/19 12:01:25;;;;;;;1.73;0.65;;;;;;;18.98;45.26;102279.09;6280851;28;20049;-69
2023/05/19 12:04:26;;;;;;;4.57;0.65;;;;;;;19.32;44.46;102276.91;6285208;28;20041;-69
2023/05/19 12:07:28;;;;;;;1.73;1.13;;;;;;;19.61;44.07;102272.31;6288793;28;20056;-68
2023/05/19 12:10:32;;;;;;;5.07;1.38;;;;;;;19.87;44.27;102277.72;6279830;28;20052;-69
2023/05/19 12:13:34;;;;;;;1.17;0.80;;;;;;;19.74;42.13;102278.53;6283243;28;20060;-69
2023/05/19 12:16:37;;;;;;;2.63;0.60;;;;;;;19.26;41.52;102271.97;6284271;28;20102;-69
2023/05/19 12:19:39;;;;;;;0.77;0.60;;;;;;;18.81;40.53;102275.81;6283808;28;20045;-68
2023/05/19 12:22:41;;;;;;;1.40;0.60;;;;;;;18.57;43.81;102281.69;6283519;28;20049;-69
2023/05/19 12:25:43;;;;;;;0.77;0.52;;;;;;;18.28;43.67;102266.66;6271077;28;20037;-69
2023/05/19 12:28:44;;;;;;;1.67;0.60;;;;;;;18.14;43.75;102268.38;6261696;28;20053;-69
2023/05/19 12:31:48;;;;;;;1.17;0.68;;;;;;;17.91;45.92;102267.09;6253899;28;20053;-69
2023/05/19 12:34:49;;;;;;;2.95;0.82;;;;;;;17.95;45.45;102267.78;6265343;28;20392;-69
2023/05/19 12:37:51;;;;;;;3.35;1.00;;;;;;;17.83;47.44;102260.53;6271542;28;20045;-69
2023/05/19 12:40:53;;;;;;;1.75;0.82;;;;;;;17.82;47.45;102265.00;6269725;28;20049;-69
2023/05/19 12:43:54;;;;;;;0.95;0.55;;;;;;;17.73;48.86;102260.19;6274841;28;20052;-69
2023/05/19 12:46:58;;;;;;;1.92;0.75;;;;;;;17.74;49.20;102259.25;6269640;28;20353;-68
2023/05/19 12:50:02;;;;;;;2.92;0.70;;;;;;;17.67;49.20;102248.13;6274672;28;20041;-69
2023/05/19 12:53:08;;;;;;;1.58;0.73;;;;;;;17.70;47.49;102237.28;6267331;28;20076;-69
2023/05/19 12:56:12;;;;;;;1.65;0.75;;;;;;;17.84;49.19;102246.28;6257619;28;20339;-69
2023/05/19 12:59:21;;;;;;;2.08;0.80;;;;;;;18.50;44.16;102238.63;6263162;28;20135;-69
2023/05/19 13:02:25;;;;;;;1.45;0.70;;;;;;;19.44;43.93;102241.44;6270259;28;20052;-69
2023/05/19 13:05:27;;;;;;;0.95;0.55;;;;;;;20.02;41.90;102245.47;6277673;28;20048;-69
2023/05/19 13:08:28;;;;;;;2.45;0.95;;;;;;;20.49;44.45;102229.81;6260473;28;20049;-69
2023/05/19 13:11:30;;;;;;;1.15;0.70;;;;;;;20.66;40.35;102221.41;6267615;28;20429;-69
2023/05/19 13:14:31;;;;;;;1.00;0.70;;;;;;;20.55;42.48;102226.69;6270959;28;20052;-69
2023/05/19 13:17:34;;;;;;;1.33;0.63;;;;;;;20.14;41.87;102233.09;6277549;28;20052;-69
2023/05/19 13:20:35;;;;;;;0.95;0.82;;;;;;;19.74;41.19;102232.34;6277059;28;20048;-69
2023/05/19 13:23:37;;;;;;;1.27;0.80;;;;;;;20.05;39.48;102219.56;6277292;28;21066;-70
2023/05/19 13:26:39;;;;;;;2.70;1.15;;;;;;;20.17;38.99;102224.91;6277304;28;20053;-69
2023/05/19 13:29:40;;;;;;;0.73;0.63;;;;;;;19.88;40.64;102226.91;6276853;28;20548;-69
2023/05/19 13:32:43;;;;;;;1.92;0.82;;;;;;;19.45;38.57;102231.63;6279578;28;20053;-70
2023/05/19 13:35:44;;;;;;;1.38;0.70;;;;;;;19.31;42.16;102229.03;6260871;28;20057;-69
2023/05/19 13:38:46;;;;;;;2.47;1.17;;;;;;;19.29;40.28;102225.59;6256727;28;20053;-70
2023/05/19 13:41:47;;;;;;;1.45;0.60;;;;;;;19.32;41.81;102225.41;6268997;28;20049;-69
2023/05/19 13:44:49;;;;;;;1.13;0.60;;;;;;;19.24;41.19;102228.56;6264731;28;20075;-69
2023/05/19 13:47:51;;;;;;;1.85;0.77;;;;;;;18.97;39.71;102232.09;6270557;28;20048;-69
2023/05/19 13:50:54;;;;;;;1.27;0.68;;;;;;;18.86;42.90;102215.97;6268182;28;20060;-69
2023/05/19 13:53:55;;;;;;;2.30;0.90;;;;;;;18.81;41.02;102215.41;6276527;28;20053;-70
2023/05/19 13:56:57;;;;;;;2.65;0.60;;;;;;;18.83;41.06;102209.97;6279700;28;20052;-70
2023/05/19 13:59:59;;;;;;;3.65;0.85;;;;;;;19.01;41.63;102203.44;6256843;28;20060;-69
2023/05/19 14:03:02;;;;;;;1.27;0.70;;;;;;;19.50;43.32;102203.69;6251537;28;20053;-69
2023/05/19 14:06:03;;;;;;;2.63;0.90;;;;;;;20.03;40.14;102198.31;6251426;28;20350;-70
2023/05/19 14:09:05;;;;;;;1.10;0.60;;;;;;;20.34;39.70;102194.31;6251057;28;20347;-70
2023/05/19 14:12:09;;;;;;;5.28;1.10;;;;;;;20.67;40.41;102192.88;6251562;28;20053;-69
2023/05/19 14:15:11;;;;;;;1.25;0.52;;;;;;;20.98;39.98;102183.44;6251160;28;20056;-69